Time;durP1;ratioP1;P1;durP2;ratioP2;P2;SDS_P1;SDS_P2;PMS_P1;PMS_P2;Temp;Humidity;BMP_temperature;BMP_pressure;BME280_temperature;BME280_humidity;BME280_pressure;Samples;Min_cycle;Max_cycle;Signal;HPM_P1;HPM_P2
2023/06/08 00:01:04;;;;;;;;;20.67;19.33;;;;;;;;5061581;28;45524;-76
2023/06/08 00:03:30;;;;;;;;;19.00;19.00;;;;;;;;5061417;28;46040;-77
2023/06/08 00:05:58;;;;;;;;;20.67;17.67;;;;;;;;5061474;28;45272;-77
2023/06/08 00:08:25;;;;;;;;;18.33;18.33;;;;;;;;5061705;28;45315;-77
2023/06/08 00:10:50;;;;;;;;;20.67;19.67;;;;;;;;5061389;28;45424;-77
2023/06/08 00:13:16;;;;;;;;;17.33;17.33;;;;;;;;5061239;28;45341;-76
2023/06/08 00:15:41;;;;;;;;;19.33;19.33;;;;;;;;5061332;28;45288;-77
2023/06/08 00:18:09;;;;;;;;;19.00;18.67;;;;;;;;5060219;28;45352;-77
2023/06/08 00:20:35;;;;;;;;;21.00;19.67;;;;;;;;5061248;28;45427;-77
2023/06/08 00:23:00;;;;;;;;;17.33;17.33;;;;;;;;5061178;28;45916;-77
2023/06/08 00:25:26;;;;;;;;;18.00;17.33;;;;;;;;5061375;28;45353;-76
2023/06/08 00:27:51;;;;;;;;;20.00;20.00;;;;;;;;5061042;28;45471;-77
2023/06/08 00:30:16;;;;;;;;;21.00;19.00;;;;;;;;5061046;28;45461;-77
2023/06/08 00:32:41;;;;;;;;;17.67;17.67;;;;;;;;5061173;28;46101;-78
2023/06/08 00:35:07;;;;;;;;;21.00;21.00;;;;;;;;5061196;28;45163;-77
2023/06/08 00:37:35;;;;;;;;;21.00;20.00;;;;;;;;5060924;28;45287;-77
2023/06/08 00:40:00;;;;;;;;;19.67;19.67;;;;;;;;5060774;28;45711;-77
2023/06/08 00:42:25;;;;;;;;;20.00;19.00;;;;;;;;5060884;28;45228;-77
2023/06/08 00:44:50;;;;;;;;;20.00;20.00;;;;;;;;5060737;28;45525;-77
2023/06/08 00:47:16;;;;;;;;;20.67;19.67;;;;;;;;5061053;28;45433;-77
2023/06/08 00:49:41;;;;;;;;;19.00;19.00;;;;;;;;5061011;28;45466;-77
2023/06/08 00:52:07;;;;;;;;;21.00;20.67;;;;;;;;5060691;28;46332;-77
2023/06/08 00:54:34;;;;;;;;;24.67;24.00;;;;;;;;5060860;28;45366;-77
2023/06/08 00:57:03;;;;;;;;;19.00;19.00;;;;;;;;5060963;28;45339;-77
2023/06/08 00:59:31;;;;;;;;;24.00;22.67;;;;;;;;5060481;28;45525;-77
2023/06/08 01:01:57;;;;;;;;;22.00;22.00;;;;;;;;5060640;28;45565;-77
2023/06/08 01:04:23;;;;;;;;;25.33;23.00;;;;;;;;5060559;28;45336;-77
2023/06/08 01:06:53;;;;;;;;;22.33;22.33;;;;;;;;5060696;28;45324;-77
2023/06/08 01:09:25;;;;;;;;;20.67;20.67;;;;;;;;5060349;28;45327;-76
2023/06/08 01:12:10;;;;;;;;;19.33;19.33;;;;;;;;5060444;28;46462;-76
2023/06/08 01:14:47;;;;;;;;;19.33;19.33;;;;;;;;5058959;28;45295;-77
2023/06/08 01:17:15;;;;;;;;;22.00;22.00;;;;;;;;5060622;28;45378;-76
2023/06/08 01:19:52;;;;;;;;;23.33;22.67;;;;;;;;5060466;28;45579;-76
2023/06/08 01:22:27;;;;;;;;;22.00;22.00;;;;;;;;5060183;28;45390;-76
2023/06/08 01:24:59;;;;;;;;;22.00;21.67;;;;;;;;5060350;28;45365;-77
2023/06/08 01:27:25;;;;;;;;;22.67;20.33;;;;;;;;5059812;28;45284;-76
2023/06/08 01:29:51;;;;;;;;;24.33;24.33;;;;;;;;5058971;28;45481;-76
2023/06/08 01:32:16;;;;;;;;;21.33;21.33;;;;;;;;5059984;28;46180;-76
2023/06/08 01:34:42;;;;;;;;;21.00;21.00;;;;;;;;5060029;28;45324;-77
2023/06/08 01:37:07;;;;;;;;;23.33;23.00;;;;;;;;5060061;28;45907;-77
2023/06/08 01:39:38;;;;;;;;;23.00;23.00;;;;;;;;5060102;28;45289;-76
2023/06/08 01:42:05;;;;;;;;;24.00;22.33;;;;;;;;5060009;28;45338;-76
2023/06/08 01:44:35;;;;;;;;;23.33;22.67;;;;;;;;5059669;28;45225;-77
2023/06/08 01:47:01;;;;;;;;;22.00;22.00;;;;;;;;5060096;28;45348;-78
2023/06/08 01:49:28;;;;;;;;;23.00;22.67;;;;;;;;5059899;28;45246;-77
2023/06/08 01:51:53;;;;;;;;;22.33;22.33;;;;;;;;5059605;28;46351;-77
2023/06/08 01:54:20;;;;;;;;;19.67;19.67;;;;;;;;5059893;28;45355;-77
2023/06/08 01:56:45;;;;;;;;;19.33;19.00;;;;;;;;5059923;28;45482;-77
2023/06/08 01:59:11;;;;;;;;;24.67;23.33;;;;;;;;5059617;28;45304;-77
2023/06/08 02:01:36;;;;;;;;;24.67;23.00;;;;;;;;5059724;28;46012;-77
2023/06/08 02:04:01;;;;;;;;;17.33;17.33;;;;;;;;5059639;28;45550;-77
2023/06/08 02:06:26;;;;;;;;;24.00;24.00;;;;;;;;5059848;28;45514;-77
2023/06/08 02:08:51;;;;;;;;;21.00;21.00;;;;;;;;5059556;28;45280;-77
2023/06/08 02:11:17;;;;;;;;;25.00;25.00;;;;;;;;5059721;28;45429;-77
2023/06/08 02:13:42;;;;;;;;;22.67;22.67;;;;;;;;5059451;28;45383;-77
2023/06/08 02:16:08;;;;;;;;;18.33;17.67;;;;;;;;5059760;28;45366;-77
2023/06/08 02:18:35;;;;;;;;;22.33;22.33;;;;;;;;5059542;28;45328;-77
2023/06/08 02:21:02;;;;;;;;;23.33;22.00;;;;;;;;5059459;28;45341;-77
2023/06/08 02:23:27;;;;;;;;;25.00;24.33;;;;;;;;5059467;28;45184;-76
2023/06/08 02:25:52;;;;;;;;;24.33;23.67;;;;;;;;5059400;28;45181;-77
2023/06/08 02:28:17;;;;;;;;;24.00;24.00;;;;;;;;5059058;28;45218;-77
2023/06/08 02:30:42;;;;;;;;;28.00;26.00;;;;;;;;5059433;28;45439;-78
2023/06/08 02:33:08;;;;;;;;;23.67;23.33;;;;;;;;5059563;28;45200;-77
2023/06/08 02:35:33;;;;;;;;;26.00;24.00;;;;;;;;5059437;28;45165;-77
2023/06/08 02:37:58;;;;;;;;;25.33;25.33;;;;;;;;5059212;28;45176;-78
2023/06/08 02:40:23;;;;;;;;;25.33;23.00;;;;;;;;5060130;28;46268;-77
2023/06/08 02:42:48;;;;;;;;;25.00;24.33;;;;;;;;5062809;28;45194;-77
2023/06/08 02:45:14;;;;;;;;;25.00;25.00;;;;;;;;5063185;28;45367;-76
2023/06/08 02:47:39;;;;;;;;;25.33;22.67;;;;;;;;5062652;28;45192;-77
2023/06/08 02:50:04;;;;;;;;;25.67;25.33;;;;;;;;5062775;28;45273;-77
2023/06/08 02:52:29;;;;;;;;;26.00;24.33;;;;;;;;5062726;28;45517;-77
2023/06/08 02:54:55;;;;;;;;;27.00;26.33;;;;;;;;5062969;28;45307;-76
2023/06/08 02:57:20;;;;;;;;;26.00;25.00;;;;;;;;5062753;28;45338;-77
2023/06/08 02:59:45;;;;;;;;;25.67;25.67;;;;;;;;5062339;28;45335;-77
2023/06/08 03:02:10;;;;;;;;;24.67;24.67;;;;;;;;5062668;28;45359;-77
2023/06/08 03:04:37;;;;;;;;;25.33;25.33;;;;;;;;5062919;28;45654;-77
2023/06/08 03:07:02;;;;;;;;;25.33;25.33;;;;;;;;5062304;28;45702;-77
2023/06/08 03:09:30;;;;;;;;;27.33;26.33;;;;;;;;5062337;28;45361;-77
2023/06/08 03:11:59;;;;;;;;;25.00;23.33;;;;;;;;5062487;28;45323;-76
2023/06/08 03:14:31;;;;;;;;;25.00;25.00;;;;;;;;5062228;28;45314;-76
2023/06/08 03:17:03;;;;;;;;;26.33;26.00;;;;;;;;5062224;28;45455;-76
2023/06/08 03:19:31;;;;;;;;;25.33;25.33;;;;;;;;5062258;28;45369;-76
2023/06/08 03:22:04;;;;;;;;;27.33;26.00;;;;;;;;5062039;28;45177;-76
2023/06/08 03:24:31;;;;;;;;;29.00;25.67;;;;;;;;5062384;28;45363;-76
2023/06/08 03:26:56;;;;;;;;;28.33;27.33;;;;;;;;5062040;28;45514;-76
2023/06/08 03:29:22;;;;;;;;;29.67;28.00;;;;;;;;5061695;28;45432;-76
2023/06/08 03:31:47;;;;;;;;;29.00;28.00;;;;;;;;5062152;28;45156;-77
2023/06/08 03:34:12;;;;;;;;;28.67;28.00;;;;;;;;5062234;28;45293;-77
2023/06/08 03:36:38;;;;;;;;;29.67;27.67;;;;;;;;5061888;28;45512;-77
2023/06/08 03:39:04;;;;;;;;;29.00;27.00;;;;;;;;5061657;28;46025;-76
2023/06/08 03:41:29;;;;;;;;;25.00;24.33;;;;;;;;5061794;28;45249;-76
2023/06/08 03:43:55;;;;;;;;;29.67;27.67;;;;;;;;5061755;28;45561;-76
2023/06/08 03:46:20;;;;;;;;;28.00;28.00;;;;;;;;5061906;28;45236;-77
2023/06/08 03:48:45;;;;;;;;;31.33;27.67;;;;;;;;5061716;28;45418;-76
2023/06/08 03:51:11;;;;;;;;;28.00;28.00;;;;;;;;5061627;28;45290;-77
2023/06/08 03:53:36;;;;;;;;;29.67;29.00;;;;;;;;5062060;28;45397;-76
2023/06/08 03:56:02;;;;;;;;;29.33;28.00;;;;;;;;5061712;28;45485;-77
2023/06/08 03:58:27;;;;;;;;;31.00;28.67;;;;;;;;5061470;28;45365;-76
2023/06/08 04:00:53;;;;;;;;;30.67;29.00;;;;;;;;5061802;28;45324;-77
2023/06/08 04:03:20;;;;;;;;;28.33;27.67;;;;;;;;5061855;28;45224;-77
2023/06/08 04:05:45;;;;;;;;;31.00;28.67;;;;;;;;5061595;28;45312;-76
2023/06/08 04:08:10;;;;;;;;;34.67;30.00;;;;;;;;5059838;28;46313;-77
2023/06/08 04:10:35;;;;;;;;;29.67;29.00;;;;;;;;5061381;28;45321;-77
2023/06/08 04:13:01;;;;;;;;;27.67;27.67;;;;;;;;5061530;28;45366;-76
2023/06/08 04:15:26;;;;;;;;;29.33;28.33;;;;;;;;5061514;28;45259;-76
2023/06/08 04:17:52;;;;;;;;;32.00;30.33;;;;;;;;5061252;28;45450;-77
2023/06/08 04:20:17;;;;;;;;;30.33;28.33;;;;;;;;5061309;28;45327;-77
2023/06/08 04:22:43;;;;;;;;;36.67;32.33;;;;;;;;5061398;28;45242;-76
2023/06/08 04:25:08;;;;;;;;;30.00;28.00;;;;;;;;5061424;28;45438;-76
2023/06/08 04:27:34;;;;;;;;;35.67;31.00;;;;;;;;5074344;28;45262;-77
2023/06/08 04:30:00;;;;;;;;;31.33;30.00;;;;;;;;5054278;28;45179;-77
2023/06/08 04:32:26;;;;;;;;;35.33;30.00;;;;;;;;5041231;28;45618;-76
2023/06/08 04:34:51;;;;;;;;;34.00;31.00;;;;;;;;5041959;28;46983;-79
2023/06/08 04:37:17;;;;;;;;;37.67;31.00;;;;;;;;5048233;28;46386;-77
2023/06/08 04:39:42;;;;;;;;;32.00;30.00;;;;;;;;5040847;28;45303;-78
2023/06/08 04:42:08;;;;;;;;;36.33;32.67;;;;;;;;5041099;28;45310;-77
2023/06/08 04:44:33;;;;;;;;;32.00;30.00;;;;;;;;5040643;28;45419;-78
2023/06/08 04:46:59;;;;;;;;;32.33;29.33;;;;;;;;5040697;28;45690;-76
2023/06/08 04:49:30;;;;;;;;;49.00;40.75;;;;;;;;5040830;28;45324;-78
2023/06/08 04:51:56;;;;;;;;;46.25;37.00;;;;;;;;5040790;28;45267;-79
2023/06/08 04:54:23;;;;;;;;;57.25;45.75;;;;;;;;5040631;28;45240;-79
2023/06/08 04:56:48;;;;;;;;;51.25;42.25;;;;;;;;5040578;28;45362;-78
2023/06/08 04:59:13;;;;;;;;;51.50;40.50;;;;;;;;5040333;28;45299;-79
2023/06/08 05:01:38;;;;;;;;;55.75;43.75;;;;;;;;5040737;28;45429;-78
2023/06/08 05:04:07;;;;;;;;;70.50;61.25;;;;;;;;5039645;28;45397;-78
2023/06/08 05:06:32;;;;;;;;;63.00;49.00;;;;;;;;5040047;28;45254;-77
2023/06/08 05:08:58;;;;;;;;;45.25;35.25;;;;;;;;5040321;28;45386;-77
2023/06/08 05:11:23;;;;;;;;;63.75;52.25;;;;;;;;5040467;28;45331;-80
2023/06/08 05:13:48;;;;;;;;;53.00;43.00;;;;;;;;5040112;28;45227;-78
2023/06/08 05:16:15;;;;;;;;;43.75;37.75;;;;;;;;5040195;28;45326;-77
2023/06/08 05:18:40;;;;;;;;;57.75;47.25;;;;;;;;5040350;28;45321;-78
2023/06/08 05:21:05;;;;;;;;;58.00;47.00;;;;;;;;5040132;28;45165;-77
2023/06/08 05:23:30;;;;;;;;;84.75;77.75;;;;;;;;5040053;28;45199;-77
2023/06/08 05:25:55;;;;;;;;;73.00;65.00;;;;;;;;5040013;28;46308;-78
2023/06/08 05:28:21;;;;;;;;;96.50;88.50;;;;;;;;5040262;28;45351;-78
2023/06/08 05:30:46;;;;;;;;;46.75;39.75;;;;;;;;5060111;28;45433;-78
2023/06/08 05:33:11;;;;;;;;;41.67;35.00;;;;;;;;5060301;28;45343;-77
2023/06/08 05:35:36;;;;;;;;;42.00;35.00;;;;;;;;5060029;28;46044;-78
2023/06/08 05:38:02;;;;;;;;;51.75;41.25;;;;;;;;5059999;28;45286;-76
2023/06/08 05:40:27;;;;;;;;;41.00;35.33;;;;;;;;5059857;28;45341;-77
2023/06/08 05:42:52;;;;;;;;;84.75;75.25;;;;;;;;5059523;28;45267;-79
2023/06/08 05:45:17;;;;;;;;;94.75;81.50;;;;;;;;5059843;28;46304;-78
2023/06/08 05:47:42;;;;;;;;;123.00;104.75;;;;;;;;5059249;28;45516;-79
2023/06/08 05:50:08;;;;;;;;;96.75;87.25;;;;;;;;5059899;28;45339;-78
2023/06/08 05:52:33;;;;;;;;;88.50;83.75;;;;;;;;5048493;28;45563;-78
2023/06/08 05:54:58;;;;;;;;;70.50;61.50;;;;;;;;5039939;28;46547;-77
2023/06/08 05:57:24;;;;;;;;;125.50;116.75;;;;;;;;5039790;28;45253;-78
2023/06/08 05:59:50;;;;;;;;;96.25;88.00;;;;;;;;5045206;28;45252;-77
2023/06/08 06:02:15;;;;;;;;;77.75;72.50;;;;;;;;5059326;28;45362;-78
2023/06/08 06:04:40;;;;;;;;;46.50;38.50;;;;;;;;5047235;28;46152;-79
2023/06/08 06:07:06;;;;;;;;;73.75;69.50;;;;;;;;5039435;28;45323;-77
2023/06/08 06:09:31;;;;;;;;;74.00;65.00;;;;;;;;5039736;28;45310;-76
2023/06/08 06:11:56;;;;;;;;;74.50;67.25;;;;;;;;5039359;28;45196;-74
2023/06/08 06:14:21;;;;;;;;;64.75;54.25;;;;;;;;5039312;28;46130;-76
2023/06/08 06:16:47;;;;;;;;;47.50;39.50;;;;;;;;5039650;28;45217;-74
2023/06/08 06:19:12;;;;;;;;;52.75;44.25;;;;;;;;5039576;28;45157;-75
2023/06/08 06:21:37;;;;;;;;;48.00;40.75;;;;;;;;5039388;28;45605;-75
2023/06/08 06:24:02;;;;;;;;;49.25;40.50;;;;;;;;5039330;28;46347;-76
2023/06/08 06:26:28;;;;;;;;;47.00;39.00;;;;;;;;5039397;28;45374;-76
2023/06/08 06:28:53;;;;;;;;;88.25;79.25;;;;;;;;5044109;28;45463;-75
2023/06/08 06:31:18;;;;;;;;;58.50;45.75;;;;;;;;5059511;28;45441;-76
2023/06/08 06:33:44;;;;;;;;;66.75;54.25;;;;;;;;5059375;28;46366;-75
2023/06/08 06:36:09;;;;;;;;;72.25;66.25;;;;;;;;5059197;28;45308;-75
2023/06/08 06:38:34;;;;;;;;;49.50;40.75;;;;;;;;5059436;28;45267;-75
2023/06/08 06:40:59;;;;;;;;;60.50;47.25;;;;;;;;5059155;28;45320;-75
2023/06/08 06:43:25;;;;;;;;;64.75;51.75;;;;;;;;5058998;28;46027;-74
2023/06/08 06:45:51;;;;;;;;;53.00;42.75;;;;;;;;5059189;28;45231;-76
2023/06/08 06:48:19;;;;;;;;;62.75;49.00;;;;;;;;5059188;28;45279;-75
2023/06/08 06:50:44;;;;;;;;;70.50;63.75;;;;;;;;5059043;28;45250;-75
2023/06/08 06:53:10;;;;;;;;;53.25;44.00;;;;;;;;5058802;28;46166;-75
2023/06/08 06:55:35;;;;;;;;;55.25;44.25;;;;;;;;5047629;28;45349;-76
2023/06/08 06:58:02;;;;;;;;;68.25;58.00;;;;;;;;5038947;28;45339;-75
2023/06/08 07:00:29;;;;;;;;;102.50;89.25;;;;;;;;5038908;28;45446;-76
2023/06/08 07:02:55;;;;;;;;;63.75;48.75;;;;;;;;5039177;28;46014;-76
2023/06/08 07:05:20;;;;;;;;;47.50;40.25;;;;;;;;5038637;28;45285;-76
2023/06/08 07:07:45;;;;;;;;;67.00;57.50;;;;;;;;5038858;28;45360;-76
2023/06/08 07:10:11;;;;;;;;;46.75;39.25;;;;;;;;5038847;28;45563;-76
2023/06/08 07:12:36;;;;;;;;;48.00;38.33;;;;;;;;5038600;28;45160;-77
2023/06/08 07:15:01;;;;;;;;;47.50;39.25;;;;;;;;5038578;28;45450;-75
2023/06/08 07:17:26;;;;;;;;;49.25;40.00;;;;;;;;5038952;28;45511;-75
2023/06/08 07:19:52;;;;;;;;;48.00;40.25;;;;;;;;5038667;28;45598;-76
2023/06/08 07:22:18;;;;;;;;;48.00;40.33;;;;;;;;5038549;28;46453;-75
2023/06/08 07:24:43;;;;;;;;;52.00;43.25;;;;;;;;5036577;28;45401;-77
2023/06/08 07:27:08;;;;;;;;;45.00;37.25;;;;;;;;5040840;28;45536;-75
2023/06/08 07:29:33;;;;;;;;;46.67;38.33;;;;;;;;5052295;28;45584;-76
2023/06/08 07:31:59;;;;;;;;;65.75;52.50;;;;;;;;5061963;28;46140;-76
2023/06/08 07:34:25;;;;;;;;;45.00;37.67;;;;;;;;5062245;28;45388;-77
2023/06/08 07:36:50;;;;;;;;;44.33;37.33;;;;;;;;5062346;28;45303;-75
2023/06/08 07:39:16;;;;;;;;;47.50;40.50;;;;;;;;5061615;28;45312;-75
2023/06/08 07:41:41;;;;;;;;;61.50;48.00;;;;;;;;5061856;28;46300;-76
2023/06/08 07:44:07;;;;;;;;;50.00;41.75;;;;;;;;5061860;28;45204;-77
2023/06/08 07:46:32;;;;;;;;;52.75;43.50;;;;;;;;5065513;28;45307;-75
2023/06/08 07:48:57;;;;;;;;;47.75;40.25;;;;;;;;5061856;28;45309;-78
2023/06/08 07:51:23;;;;;;;;;101.25;94.50;;;;;;;;5058680;28;45422;-76
2023/06/08 07:53:48;;;;;;;;;50.00;41.67;;;;;;;;5061367;28;45338;-76
2023/06/08 07:56:13;;;;;;;;;76.75;71.75;;;;;;;;5062045;28;45179;-77
2023/06/08 07:58:38;;;;;;;;;60.25;46.50;;;;;;;;5060410;28;45157;-77
2023/06/08 08:01:03;;;;;;;;;63.00;50.50;;;;;;;;5060800;28;45381;-78
2023/06/08 08:03:29;;;;;;;;;67.75;56.75;;;;;;;;5061376;28;45218;-77
2023/06/08 08:05:54;;;;;;;;;69.00;59.50;;;;;;;;5060122;28;45378;-77
2023/06/08 08:08:20;;;;;;;;;46.00;39.50;;;;;;;;5061229;28;45194;-75
2023/06/08 08:10:45;;;;;;;;;49.25;40.50;;;;;;;;5062624;28;45889;-76
2023/06/08 08:13:12;;;;;;;;;45.33;38.67;;;;;;;;5061191;28;45223;-76
2023/06/08 08:15:39;;;;;;;;;44.50;37.25;;;;;;;;5061488;28;45406;-75
2023/06/08 08:18:04;;;;;;;;;44.50;36.75;;;;;;;;5061539;28;45469;-75
2023/06/08 08:20:30;;;;;;;;;47.00;39.00;;;;;;;;5058150;28;45843;-76
2023/06/08 08:22:55;;;;;;;;;45.33;38.33;;;;;;;;5061074;28;45249;-75
2023/06/08 08:25:21;;;;;;;;;44.00;37.33;;;;;;;;5061624;28;45671;-78
2023/06/08 08:27:46;;;;;;;;;49.50;39.50;;;;;;;;5061660;28;45279;-76
2023/06/08 08:30:12;;;;;;;;;41.67;35.33;;;;;;;;5061070;28;45290;-75
2023/06/08 08:32:37;;;;;;;;;40.00;34.33;;;;;;;;5061340;28;45352;-75
2023/06/08 08:35:02;;;;;;;;;45.25;38.75;;;;;;;;5061796;28;45474;-75
2023/06/08 08:37:28;;;;;;;;;64.50;54.25;;;;;;;;5059887;28;45197;-76
2023/06/08 08:39:53;;;;;;;;;53.50;43.00;;;;;;;;5060605;28;45250;-75
2023/06/08 08:42:22;;;;;;;;;57.00;47.00;;;;;;;;5061127;28;45192;-75
2023/06/08 08:44:49;;;;;;;;;58.75;47.25;;;;;;;;5061372;28;45359;-75
2023/06/08 08:47:14;;;;;;;;;66.75;59.00;;;;;;;;5060700;28;45362;-75
2023/06/08 08:49:42;;;;;;;;;56.75;41.75;;;;;;;;5060580;28;45398;-76
2023/06/08 08:52:08;;;;;;;;;106.25;99.50;;;;;;;;5060685;28;45344;-74
2023/06/08 08:54:34;;;;;;;;;66.50;58.00;;;;;;;;5060899;28;45511;-74
2023/06/08 08:57:00;;;;;;;;;47.75;40.00;;;;;;;;5060452;28;45215;-75
2023/06/08 08:59:28;;;;;;;;;40.00;34.67;;;;;;;;5060461;28;45165;-75
2023/06/08 09:01:54;;;;;;;;;64.00;48.00;;;;;;;;5060674;28;45412;-76
2023/06/08 09:04:19;;;;;;;;;51.00;40.67;;;;;;;;5050661;28;45334;-75
2023/06/08 09:06:48;;;;;;;;;41.67;35.67;;;;;;;;5040397;28;45485;-75
2023/06/08 09:09:13;;;;;;;;;54.75;43.50;;;;;;;;5040359;28;45304;-75
2023/06/08 09:11:54;;;;;;;;;48.33;40.00;;;;;;;;5040339;28;45364;-75
2023/06/08 09:14:20;;;;;;;;;47.75;39.25;;;;;;;;5040311;28;45343;-75
2023/06/08 09:16:45;;;;;;;;;71.25;61.00;;;;;;;;5040264;28;45332;-76
2023/06/08 09:19:11;;;;;;;;;40.67;34.67;;;;;;;;5040268;28;45307;-77
2023/06/08 09:21:36;;;;;;;;;36.00;32.33;;;;;;;;5040074;28;45305;-75
2023/06/08 09:24:11;;;;;;;;;117.25;101.50;;;;;;;;5040363;28;45188;-75
2023/06/08 09:26:45;;;;;;;;;59.00;47.50;;;;;;;;5039144;28;45927;-77
2023/06/08 09:29:11;;;;;;;;;107.25;99.75;;;;;;;;5059658;28;45928;-76
2023/06/08 09:31:48;;;;;;;;;36.00;32.00;;;;;;;;5058565;28;45324;-75
2023/06/08 09:34:13;;;;;;;;;56.25;45.50;;;;;;;;5060143;28;45386;-77
2023/06/08 09:36:38;;;;;;;;;62.25;50.75;;;;;;;;5056616;28;46454;-75
2023/06/08 09:39:05;;;;;;;;;60.25;47.25;;;;;;;;5059466;28;45362;-75
2023/06/08 09:41:32;;;;;;;;;59.00;46.25;;;;;;;;5060327;28;45240;-75
2023/06/08 09:43:57;;;;;;;;;57.00;44.25;;;;;;;;5060751;28;45419;-74
2023/06/08 09:46:39;;;;;;;;;38.67;33.33;;;;;;;;5050702;28;45321;-76
2023/06/08 09:49:08;;;;;;;;;54.75;44.25;;;;;;;;5039046;28;45832;-74
2023/06/08 09:51:37;;;;;;;;;45.67;37.67;;;;;;;;5039763;28;45388;-78
2023/06/08 09:54:03;;;;;;;;;39.00;33.00;;;;;;;;5039902;28;45303;-74
2023/06/08 09:56:28;;;;;;;;;58.75;47.75;;;;;;;;5044407;28;45345;-74
2023/06/08 09:58:58;;;;;;;;;54.75;45.00;;;;;;;;5042215;28;45339;-74
2023/06/08 10:01:40;;;;;;;;;37.00;32.00;;;;;;;;5039801;28;45267;-75
2023/06/08 10:04:11;;;;;;;;;33.33;29.00;;;;;;;;5039760;28;45348;-75
2023/06/08 10:06:37;;;;;;;;;28.33;26.00;;;;;;;;5039446;28;45329;-75
2023/06/08 10:09:05;;;;;;;;;35.00;31.33;;;;;;;;5040876;28;46368;-78
2023/06/08 10:11:31;;;;;;;;;38.33;33.00;;;;;;;;5041233;28;45295;-75
2023/06/08 10:13:57;;;;;;;;;35.00;30.33;;;;;;;;5042561;28;45369;-75
2023/06/08 10:16:23;;;;;;;;;43.33;37.00;;;;;;;;5040648;28;45553;-75
2023/06/08 10:18:49;;;;;;;;;45.67;38.00;;;;;;;;5039510;28;46231;-75
2023/06/08 10:21:14;;;;;;;;;38.00;33.33;;;;;;;;5039236;28;45326;-77
2023/06/08 10:23:40;;;;;;;;;39.67;32.67;;;;;;;;5053300;28;45342;-78
2023/06/08 10:26:06;;;;;;;;;38.33;33.00;;;;;;;;5059073;28;45339;-77
2023/06/08 10:28:31;;;;;;;;;43.33;37.00;;;;;;;;5058213;28;46027;-76
2023/06/08 10:30:57;;;;;;;;;56.75;45.25;;;;;;;;5058854;28;45418;-76
2023/06/08 10:33:24;;;;;;;;;39.00;34.00;;;;;;;;5059137;28;45338;-78
2023/06/08 10:36:09;;;;;;;;;42.67;35.67;;;;;;;;5058795;28;45499;-77
2023/06/08 10:38:36;;;;;;;;;46.67;37.67;;;;;;;;5058643;28;45806;-79
2023/06/08 10:41:02;;;;;;;;;60.75;48.75;;;;;;;;5058654;28;45412;-76
2023/06/08 10:43:28;;;;;;;;;39.00;32.67;;;;;;;;5058817;28;45518;-76
2023/06/08 10:45:53;;;;;;;;;30.00;28.33;;;;;;;;5058497;28;45324;-79
2023/06/08 10:48:18;;;;;;;;;31.67;28.00;;;;;;;;5058635;28;46179;-82
2023/06/08 10:50:44;;;;;;;;;28.33;27.00;;;;;;;;5058708;28;45346;-79
2023/06/08 10:53:10;;;;;;;;;33.67;30.67;;;;;;;;5051110;28;45388;-79
2023/06/08 10:55:35;;;;;;;;;31.67;28.67;;;;;;;;5041160;28;45405;-79
2023/06/08 10:58:05;;;;;;;;;32.00;29.67;;;;;;;;5056227;28;46306;-79
2023/06/08 11:00:32;;;;;;;;;35.33;31.33;;;;;;;;5047502;28;45304;-81
2023/06/08 11:03:00;;;;;;;;;27.67;27.33;;;;;;;;5061850;28;45465;-75
2023/06/08 11:05:32;;;;;;;;;27.33;26.67;;;;;;;;5062321;28;45295;-79
2023/06/08 11:07:59;;;;;;;;;37.67;32.67;;;;;;;;5061699;28;46234;-78
2023/06/08 11:10:24;;;;;;;;;32.00;29.33;;;;;;;;5062338;28;45378;-78
2023/06/08 11:12:50;;;;;;;;;27.33;26.67;;;;;;;;5061821;28;45359;-80
2023/06/08 11:15:16;;;;;;;;;26.33;25.67;;;;;;;;5061950;28;45295;-81
2023/06/08 11:17:43;;;;;;;;;25.67;25.67;;;;;;;;5060291;28;45352;-80
2023/06/08 11:20:09;;;;;;;;;34.33;30.00;;;;;;;;5061336;28;45294;-79
2023/06/08 11:22:37;;;;;;;;;27.67;27.33;;;;;;;;5074357;28;45680;-76
2023/06/08 11:25:03;;;;;;;;;31.33;29.33;;;;;;;;5062055;28;45394;-77
2023/06/08 11:27:28;;;;;;;;;36.00;31.67;;;;;;;;5061125;28;46434;-77
2023/06/08 11:29:53;;;;;;;;;45.67;38.67;;;;;;;;5061367;28;45362;-79
2023/06/08 11:32:19;;;;;;;;;37.67;31.33;;;;;;;;5060399;28;45434;-79
2023/06/08 11:34:45;;;;;;;;;27.00;26.33;;;;;;;;5061757;28;45447;-78
2023/06/08 11:37:11;;;;;;;;;55.50;44.25;;;;;;;;5048171;28;45325;-78
2023/06/08 11:39:41;;;;;;;;;40.67;34.00;;;;;;;;5061510;28;45330;-78
2023/06/08 11:42:06;;;;;;;;;25.67;24.67;;;;;;;;5061871;28;45623;-78
2023/06/08 11:44:31;;;;;;;;;24.00;24.00;;;;;;;;5061298;28;45817;-79
2023/06/08 11:46:56;;;;;;;;;24.00;22.67;;;;;;;;5061547;28;45454;-77
2023/06/08 11:49:23;;;;;;;;;29.00;28.33;;;;;;;;5061546;28;45514;-77
2023/06/08 11:51:51;;;;;;;;;26.67;26.33;;;;;;;;5061660;28;45386;-79
2023/06/08 11:54:16;;;;;;;;;27.33;26.67;;;;;;;;5061428;28;45307;-79
2023/06/08 11:56:45;;;;;;;;;38.33;32.33;;;;;;;;5061203;28;46199;-75
2023/06/08 11:59:10;;;;;;;;;32.67;29.67;;;;;;;;5061336;28;45350;-78
2023/06/08 12:01:37;;;;;;;;;28.67;25.67;;;;;;;;5061362;28;45283;-78
2023/06/08 12:04:11;;;;;;;;;43.67;37.33;;;;;;;;5061384;28;45516;-78
2023/06/08 12:06:37;;;;;;;;;28.67;27.33;;;;;;;;5060951;28;46084;-77
2023/06/08 12:09:06;;;;;;;;;26.00;24.33;;;;;;;;5060993;28;45354;-76
2023/06/08 12:11:34;;;;;;;;;20.33;20.33;;;;;;;;5061314;28;45414;-78
2023/06/08 12:13:59;;;;;;;;;20.33;20.33;;;;;;;;5061105;28;45280;-77
2023/06/08 12:16:25;;;;;;;;;20.67;17.33;;;;;;;;5061011;28;45239;-79
2023/06/08 12:18:50;;;;;;;;;20.00;20.00;;;;;;;;5061388;28;45334;-78
2023/06/08 12:21:15;;;;;;;;;21.33;21.33;;;;;;;;5061534;28;45149;-77
2023/06/08 12:23:41;;;;;;;;;23.00;22.33;;;;;;;;5061638;28;45480;-78
2023/06/08 12:26:06;;;;;;;;;24.00;23.67;;;;;;;;5060805;28;45448;-78
2023/06/08 12:28:32;;;;;;;;;20.33;20.33;;;;;;;;5060889;28;45359;-79
2023/06/08 12:31:00;;;;;;;;;31.33;29.00;;;;;;;;5061221;28;45481;-78
2023/06/08 12:33:26;;;;;;;;;42.00;36.00;;;;;;;;5061226;28;45380;-78
2023/06/08 12:35:51;;;;;;;;;22.33;22.00;;;;;;;;5060926;28;45986;-79
2023/06/08 12:38:17;;;;;;;;;18.00;18.00;;;;;;;;5060927;28;45231;-79
2023/06/08 12:40:48;;;;;;;;;18.67;18.67;;;;;;;;5060928;28;45425;-79
2023/06/08 12:43:22;;;;;;;;;22.00;22.00;;;;;;;;5060516;28;45519;-77
2023/06/08 12:45:48;;;;;;;;;20.33;19.33;;;;;;;;5060661;28;46417;-78
2023/06/08 12:48:13;;;;;;;;;20.33;19.67;;;;;;;;5058248;28;45410;-79
2023/06/08 12:50:39;;;;;;;;;21.00;21.00;;;;;;;;5058710;28;45487;-78
2023/06/08 12:53:04;;;;;;;;;20.33;20.33;;;;;;;;5060196;28;45382;-79
2023/06/08 12:55:29;;;;;;;;;17.67;17.67;;;;;;;;5060496;28;45374;-75
2023/06/08 12:57:55;;;;;;;;;28.67;25.67;;;;;;;;5059183;28;45405;-78
2023/06/08 13:00:21;;;;;;;;;21.00;21.00;;;;;;;;5061020;28;45411;-79
2023/06/08 13:02:51;;;;;;;;;18.00;17.67;;;;;;;;5060842;28;45553;-79
2023/06/08 13:05:16;;;;;;;;;17.67;17.00;;;;;;;;5058916;28;47744;-78
2023/06/08 13:07:41;;;;;;;;;18.67;18.00;;;;;;;;5060928;28;45498;-79
2023/06/08 13:10:07;;;;;;;;;21.00;19.33;;;;;;;;5060645;28;45552;-80
2023/06/08 13:12:32;;;;;;;;;21.00;21.00;;;;;;;;5060757;28;45229;-79
2023/06/08 13:14:58;;;;;;;;;20.33;20.33;;;;;;;;5060074;28;45412;-80
2023/06/08 13:17:26;;;;;;;;;19.67;19.00;;;;;;;;5060577;28;45256;-78
2023/06/08 13:19:55;;;;;;;;;21.00;21.00;;;;;;;;5060818;28;45689;-79
2023/06/08 13:22:21;;;;;;;;;31.33;29.00;;;;;;;;5060350;28;45565;-79
2023/06/08 13:24:47;;;;;;;;;48.33;39.33;;;;;;;;5059677;28;45358;-79
2023/06/08 13:27:12;;;;;;;;;31.67;28.67;;;;;;;;5060061;28;45346;-79
2023/06/08 13:29:40;;;;;;;;;24.33;24.00;;;;;;;;5060384;28;45227;-80
2023/06/08 13:32:06;;;;;;;;;19.33;19.33;;;;;;;;5060314;28;45271;-79
2023/06/08 13:34:32;;;;;;;;;19.33;19.33;;;;;;;;5060191;28;47870;-80
2023/06/08 13:36:57;;;;;;;;;22.67;22.67;;;;;;;;5059973;28;45269;-79
2023/06/08 13:39:22;;;;;;;;;39.00;33.00;;;;;;;;5060229;28;45374;-78
2023/06/08 13:41:47;;;;;;;;;24.33;23.67;;;;;;;;5060250;28;45146;-79
2023/06/08 13:44:14;;;;;;;;;20.00;20.00;;;;;;;;5059904;28;45518;-79
2023/06/08 13:46:39;;;;;;;;;17.67;17.33;;;;;;;;5059965;28;45286;-78
2023/06/08 13:49:04;;;;;;;;;21.67;21.33;;;;;;;;5059574;28;45209;-79
2023/06/08 13:51:29;;;;;;;;;16.67;16.67;;;;;;;;5059942;28;45259;-79
2023/06/08 13:53:54;;;;;;;;;20.33;20.33;;;;;;;;5059923;28;46094;-79
2023/06/08 13:56:20;;;;;;;;;24.00;23.67;;;;;;;;5060037;28;45163;-83
2023/06/08 13:58:47;;;;;;;;;24.33;24.33;;;;;;;;5059282;28;45156;-78
2023/06/08 14:01:13;;;;;;;;;40.67;34.67;;;;;;;;5059868;28;45751;-79
2023/06/08 14:03:38;;;;;;;;;31.00;28.67;;;;;;;;5057805;28;48162;-81
2023/06/08 14:06:04;;;;;;;;;21.67;21.00;;;;;;;;5053991;28;45289;-79
2023/06/08 14:08:30;;;;;;;;;17.67;17.67;;;;;;;;5045114;28;45287;-79
2023/06/08 14:10:55;;;;;;;;;20.67;20.67;;;;;;;;5039477;28;45407;-80